Time;durP1;ratioP1;P1;durP2;ratioP2;P2;SDS_P1;SDS_P2;PMS_P1;PMS_P2;Temp;Humidity;BMP_temperature;BMP_pressure;BME280_temperature;BME280_humidity;BME280_pressure;Samples;Min_cycle;Max_cycle;Signal;HPM_P1;HPM_P2
2022/03/30 00:01:32;;;;;;;;;;;6.60;99.90;;;;;;4957228;28;19926;-75
2022/03/30 00:03:58;;;;;;;;;;;6.60;99.90;;;;;;4954807;28;19922;-76
2022/03/30 00:06:26;;;;;;;;;;;6.60;99.90;;;;;;4956855;28;19929;-76
2022/03/30 00:08:54;;;;;;;;;;;6.60;99.90;;;;;;4956375;28;19961;-76
2022/03/30 00:11:34;;;;;;;;;;;6.60;99.90;;;;;;4988502;28;20365;-75
2022/03/30 00:14:06;;;;;;;;;;;6.60;99.90;;;;;;4957614;28;19930;-76
2022/03/30 00:16:34;;;;;;;;;;;6.60;99.90;;;;;;4957551;28;19929;-75
2022/03/30 00:19:00;;;;;;;;;;;6.60;99.90;;;;;;4957382;28;20369;-76
2022/03/30 00:21:26;;;;;;;;;;;6.60;99.90;;;;;;4973406;28;19930;-75
2022/03/30 00:23:52;;;;;;;;;;;6.60;99.90;;;;;;4941321;28;19922;-75
2022/03/30 00:26:38;;;;;;;;;;;6.60;99.90;;;;;;4974015;28;20286;-76
2022/03/30 00:29:04;;;;;;;;;;;6.70;99.90;;;;;;4995379;28;19976;-75
2022/03/30 00:31:31;;;;;;;;;;;6.70;99.90;;;;;;4942345;28;19926;-76
2022/03/30 00:33:57;;;;;;;;;;;6.70;99.90;;;;;;4956093;28;19922;-75
2022/03/30 00:36:23;;;;;;;;;;;6.70;99.90;;;;;;4957021;28;20295;-75
2022/03/30 00:38:50;;;;;;;;;;;6.70;99.90;;;;;;4972833;28;20072;-75
2022/03/30 00:41:18;;;;;;;;;;;6.70;99.90;;;;;;4972478;28;19928;-76
2022/03/30 00:43:48;;;;;;;;;;;6.70;99.90;;;;;;4974277;28;20266;-76
2022/03/30 00:46:14;;;;;;;;;;;6.70;99.90;;;;;;4956732;28;19921;-76
2022/03/30 00:49:02;;;;;;;;;;;6.70;99.90;;;;;;4974282;28;20045;-75
2022/03/30 00:51:28;;;;;;;;;;;6.70;99.90;;;;;;4972493;28;20482;-75
2022/03/30 00:53:53;;;;;;;;;;;6.70;99.90;;;;;;4974242;28;19922;-75
2022/03/30 00:56:19;;;;;;;;;;;6.70;99.90;;;;;;4974197;28;19945;-76
2022/03/30 00:58:44;;;;;;;;;;;6.70;99.90;;;;;;4956261;28;19926;-75
2022/03/30 01:01:11;;;;;;;;;;;6.70;99.90;;;;;;4979656;28;19926;-76
2022/03/30 01:03:39;;;;;;;;;;;6.70;99.90;;;;;;4937338;29;19922;-76
2022/03/30 01:06:06;;;;;;;;;;;6.70;99.90;;;;;;4921754;29;19926;-76
2022/03/30 01:08:32;;;;;;;;;;;6.70;99.90;;;;;;4921808;29;19922;-76
2022/03/30 01:10:59;;;;;;;;;;;6.60;99.90;;;;;;4938414;29;19922;-76
2022/03/30 01:13:28;;;;;;;;;;;6.60;99.90;;;;;;4962417;28;19933;-76
2022/03/30 01:15:53;;;;;;;;;;;6.60;99.90;;;;;;4950739;29;19922;-76
2022/03/30 01:18:23;;;;;;;;;;;6.50;99.90;;;;;;4942597;29;19930;-76
2022/03/30 01:20:49;;;;;;;;;;;6.50;99.90;;;;;;4905431;29;19978;-75
2022/03/30 01:23:16;;;;;;;;;;;6.50;99.90;;;;;;4937314;29;20006;-76
2022/03/30 01:25:46;;;;;;;;;;;6.50;99.90;;;;;;4937505;29;19922;-75
2022/03/30 01:28:11;;;;;;;;;;;6.50;99.90;;;;;;4970260;28;19933;-76
2022/03/30 01:33:23;;;;;;;;;;;6.50;99.90;;;;;;4958776;29;20404;-75
2022/03/30 01:35:51;;;;;;;;;;;6.50;99.90;;;;;;4912440;29;19933;-75
2022/03/30 01:38:17;;;;;;;;;;;6.40;99.90;;;;;;4943219;29;19926;-76
2022/03/30 01:40:42;;;;;;;;;;;6.40;99.90;;;;;;4959320;28;19922;-76
2022/03/30 01:43:11;;;;;;;;;;;6.40;99.90;;;;;;4943119;29;19933;-76
2022/03/30 01:45:37;;;;;;;;;;;6.40;99.90;;;;;;4975484;28;19926;-76
2022/03/30 01:48:05;;;;;;;;;;;6.40;99.90;;;;;;4960405;28;19929;-76
2022/03/30 01:50:32;;;;;;;;;;;6.30;99.90;;;;;;4943317;29;19969;-75
2022/03/30 01:53:03;;;;;;;;;;;6.30;99.90;;;;;;4943564;29;19936;-76
2022/03/30 01:55:29;;;;;;;;;;;6.30;99.90;;;;;;4977911;28;19934;-76
2022/03/30 01:57:54;;;;;;;;;;;6.30;99.90;;;;;;4980026;28;19923;-76
2022/03/30 02:00:21;;;;;;;;;;;6.30;99.90;;;;;;4929395;28;19922;-75
2022/03/30 02:02:47;;;;;;;;;;;6.20;99.90;;;;;;4978270;28;20008;-75
2022/03/30 02:05:13;;;;;;;;;;;6.20;99.90;;;;;;4978139;28;20409;-76
2022/03/30 02:07:39;;;;;;;;;;;6.20;99.90;;;;;;4994830;28;20448;-75
2022/03/30 02:10:06;;;;;;;;;;;6.20;99.90;;;;;;4977529;28;20305;-75
2022/03/30 02:12:32;;;;;;;;;;;6.10;99.90;;;;;;4994443;28;19948;-76
2022/03/30 02:14:59;;;;;;;;;;;6.10;99.90;;;;;;4978377;28;19922;-75
2022/03/30 02:17:27;;;;;;;;;;;6.00;99.90;;;;;;4962172;28;20341;-75
2022/03/30 02:19:55;;;;;;;;;;;6.00;99.90;;;;;;4994499;28;19922;-76
2022/03/30 02:22:22;;;;;;;;;;;5.90;99.90;;;;;;4978030;28;19922;-76
2022/03/30 02:24:51;;;;;;;;;;;5.90;99.90;;;;;;4962079;28;19925;-76
2022/03/30 02:27:19;;;;;;;;;;;5.90;99.90;;;;;;4994868;28;20254;-76
2022/03/30 02:29:49;;;;;;;;;;;5.80;99.90;;;;;;4994607;28;19969;-76
2022/03/30 02:32:14;;;;;;;;;;;5.80;99.90;;;;;;4962817;28;20005;-76
2022/03/30 02:34:41;;;;;;;;;;;5.70;99.90;;;;;;4964785;28;20013;-76
2022/03/30 02:37:08;;;;;;;;;;;5.70;99.90;;;;;;4956735;28;19926;-76
2022/03/30 02:39:34;;;;;;;;;;;5.70;99.90;;;;;;4969503;28;19922;-76
2022/03/30 02:42:01;;;;;;;;;;;5.60;99.90;;;;;;4997505;28;19926;-77
2022/03/30 02:44:27;;;;;;;;;;;5.50;99.90;;;;;;4976301;28;20377;-77
2022/03/30 02:46:54;;;;;;;;;;;5.50;99.90;;;;;;4942707;28;20009;-77
2022/03/30 02:49:24;;;;;;;;;;;5.50;99.90;;;;;;4973804;28;20306;-76
2022/03/30 02:51:50;;;;;;;;;;;5.50;99.90;;;;;;4975161;28;19977;-77
2022/03/30 02:54:18;;;;;;;;;;;5.40;99.90;;;;;;4958249;28;19926;-76
2022/03/30 02:56:55;;;;;;;;;;;5.40;99.90;;;;;;4935448;29;19937;-76
2022/03/30 02:59:22;;;;;;;;;;;5.30;99.90;;;;;;4918157;29;20357;-77
2022/03/30 03:01:51;;;;;;;;;;;5.30;99.90;;;;;;4889931;29;20390;-76
2022/03/30 03:04:16;;;;;;;;;;;5.40;99.90;;;;;;4916005;29;20355;-75
2022/03/30 03:06:42;;;;;;;;;;;5.30;99.90;;;;;;4900354;29;19972;-76
2022/03/30 03:09:08;;;;;;;;;;;5.30;99.90;;;;;;4900563;29;19923;-75
2022/03/30 03:11:34;;;;;;;;;;;5.40;99.90;;;;;;4900242;29;19990;-76
2022/03/30 03:14:30;;;;;;;;;;;5.40;99.90;;;;;;4903413;29;20055;-76
2022/03/30 03:17:00;;;;;;;;;;;5.40;99.90;;;;;;4884834;29;20096;-75
2022/03/30 03:19:28;;;;;;;;;;;5.40;99.90;;;;;;4899928;29;20021;-76
2022/03/30 03:21:54;;;;;;;;;;;5.40;99.90;;;;;;4885103;29;19978;-76
2022/03/30 03:24:23;;;;;;;;;;;5.40;99.90;;;;;;4906022;29;19947;-76
2022/03/30 03:26:51;;;;;;;;;;;5.40;99.90;;;;;;4914597;29;19927;-76
2022/03/30 03:29:16;;;;;;;;;;;5.40;99.90;;;;;;4974759;28;19927;-75
2022/03/30 03:31:43;;;;;;;;;;;5.40;99.90;;;;;;4971214;28;19933;-76
2022/03/30 03:34:31;;;;;;;;;;;5.40;99.90;;;;;;4910309;29;20006;-76
2022/03/30 03:36:59;;;;;;;;;;;5.40;99.90;;;;;;4912682;29;19967;-76
2022/03/30 03:39:26;;;;;;;;;;;5.40;99.90;;;;;;4881270;29;19927;-76
2022/03/30 03:41:52;;;;;;;;;;;5.40;99.90;;;;;;4880245;29;19945;-76
2022/03/30 03:44:18;;;;;;;;;;;5.50;99.90;;;;;;4881438;29;20274;-76
2022/03/30 03:46:43;;;;;;;;;;;5.50;99.90;;;;;;4880384;29;20470;-76
2022/03/30 03:49:12;;;;;;;;;;;5.50;99.90;;;;;;4881004;29;19930;-75
2022/03/30 03:51:38;;;;;;;;;;;5.50;99.90;;;;;;4881075;29;19930;-77
2022/03/30 03:54:04;;;;;;;;;;;5.50;99.90;;;;;;4880764;29;20044;-77
2022/03/30 03:56:30;;;;;;;;;;;5.50;99.90;;;;;;4880813;29;19923;-76
2022/03/30 03:58:56;;;;;;;;;;;5.50;99.90;;;;;;4886236;29;19924;-76
2022/03/30 04:01:24;;;;;;;;;;;5.50;99.90;;;;;;4900725;29;19926;-76
2022/03/30 04:03:56;;;;;;;;;;;5.50;99.90;;;;;;4930276;29;19933;-76
2022/03/30 04:06:22;;;;;;;;;;;5.50;99.90;;;;;;4950642;29;19934;-76
2022/03/30 04:08:49;;;;;;;;;;;5.50;99.90;;;;;;4952534;29;20418;-76
2022/03/30 04:11:14;;;;;;;;;;;5.50;99.90;;;;;;4987009;28;19923;-76
2022/03/30 04:13:41;;;;;;;;;;;5.50;99.90;;;;;;4938186;29;20013;-75
2022/03/30 04:16:09;;;;;;;;;;;5.50;99.90;;;;;;4954874;29;19928;-75
2022/03/30 04:18:36;;;;;;;;;;;5.50;99.90;;;;;;4987126;28;19926;-75
2022/03/30 04:21:02;;;;;;;;;;;5.50;99.90;;;;;;4938409;29;20271;-76
2022/03/30 04:23:49;;;;;;;;;;;5.50;99.90;;;;;;4954303;29;20362;-76
2022/03/30 04:26:14;;;;;;;;;;;5.50;99.90;;;;;;4986822;28;19922;-76
2022/03/30 04:28:43;;;;;;;;;;;5.50;99.90;;;;;;4954532;29;19929;-77
2022/03/30 04:31:09;;;;;;;;;;;5.60;99.90;;;;;;4938136;29;20013;-76
2022/03/30 04:33:35;;;;;;;;;;;5.50;99.90;;;;;;4954432;29;20326;-76
2022/03/30 04:36:02;;;;;;;;;;;5.60;99.90;;;;;;4954259;29;20395;-76
2022/03/30 04:38:28;;;;;;;;;;;5.50;99.90;;;;;;4991612;28;20374;-77
2022/03/30 04:40:53;;;;;;;;;;;5.50;99.90;;;;;;4944250;29;19929;-75
2022/03/30 04:43:19;;;;;;;;;;;5.50;99.90;;;;;;4986799;28;20369;-75
2022/03/30 04:45:45;;;;;;;;;;;5.50;99.90;;;;;;4986385;28;19922;-76
2022/03/30 04:48:10;;;;;;;;;;;5.50;99.90;;;;;;4986128;28;19950;-77
2022/03/30 04:50:36;;;;;;;;;;;5.40;99.90;;;;;;4953893;29;19933;-76
2022/03/30 04:53:02;;;;;;;;;;;5.40;99.90;;;;;;4955145;28;19926;-76
2022/03/30 04:55:28;;;;;;;;;;;5.40;99.90;;;;;;4937563;29;19923;-76
2022/03/30 04:57:53;;;;;;;;;;;5.30;99.90;;;;;;4954835;29;19922;-76
2022/03/30 05:00:19;;;;;;;;;;;5.30;99.90;;;;;;4988064;28;19960;-76
2022/03/30 05:02:45;;;;;;;;;;;5.30;99.90;;;;;;4956200;28;19977;-76
2022/03/30 05:05:11;;;;;;;;;;;5.30;99.90;;;;;;4956553;28;19994;-76
2022/03/30 05:07:39;;;;;;;;;;;5.30;99.90;;;;;;4955649;28;19926;-76
2022/03/30 05:10:11;;;;;;;;;;;5.30;99.90;;;;;;4972256;28;19968;-76
2022/03/30 05:12:37;;;;;;;;;;;5.30;99.90;;;;;;4972614;28;19954;-76
2022/03/30 05:15:03;;;;;;;;;;;5.30;99.90;;;;;;4956471;28;19922;-76
2022/03/30 05:17:30;;;;;;;;;;;5.30;99.90;;;;;;4971117;28;20020;-77
2022/03/30 05:19:56;;;;;;;;;;;5.20;99.90;;;;;;4956291;28;20012;-77
2022/03/30 05:22:23;;;;;;;;;;;5.30;99.90;;;;;;4973861;28;19932;-76
2022/03/30 05:24:50;;;;;;;;;;;5.30;99.90;;;;;;4940183;28;19926;-76
2022/03/30 05:27:18;;;;;;;;;;;5.20;99.90;;;;;;4956171;28;19921;-76
2022/03/30 05:29:43;;;;;;;;;;;5.30;99.90;;;;;;4973646;28;20305;-76
2022/03/30 05:32:11;;;;;;;;;;;5.30;99.90;;;;;;4972114;28;19929;-76
2022/03/30 05:34:37;;;;;;;;;;;5.30;99.90;;;;;;4957047;28;19925;-77
2022/03/30 05:37:03;;;;;;;;;;;5.30;99.90;;;;;;4941580;28;20342;-76
2022/03/30 05:39:30;;;;;;;;;;;5.30;99.90;;;;;;4957090;28;19949;-77
2022/03/30 05:41:59;;;;;;;;;;;5.20;99.90;;;;;;4973426;28;19929;-76
2022/03/30 05:44:28;;;;;;;;;;;5.30;99.90;;;;;;4973773;28;19926;-76
2022/03/30 05:46:53;;;;;;;;;;;5.30;99.90;;;;;;4940303;28;19922;-76
2022/03/30 05:49:22;;;;;;;;;;;5.30;99.90;;;;;;4941181;28;20077;-76
2022/03/30 05:51:48;;;;;;;;;;;5.30;99.90;;;;;;4956039;28;20020;-76
2022/03/30 05:54:13;;;;;;;;;;;5.30;99.90;;;;;;4940096;28;19926;-77
2022/03/30 05:59:23;;;;;;;;;;;5.30;99.90;;;;;;4955773;28;19969;-76
2022/03/30 06:01:49;;;;;;;;;;;5.40;99.90;;;;;;4973762;28;19970;-76
2022/03/30 06:04:15;;;;;;;;;;;5.40;99.90;;;;;;4970636;28;19922;-76
2022/03/30 06:06:43;;;;;;;;;;;5.30;99.90;;;;;;4970960;28;20285;-77
2022/03/30 06:09:08;;;;;;;;;;;5.40;99.90;;;;;;4939951;28;20282;-76
2022/03/30 06:11:35;;;;;;;;;;;5.40;99.90;;;;;;4955465;28;19929;-77
2022/03/30 06:14:01;;;;;;;;;;;5.40;99.90;;;;;;4955392;28;19929;-76
2022/03/30 06:16:35;;;;;;;;;;;5.50;99.90;;;;;;4939597;28;20315;-76
2022/03/30 06:19:04;;;;;;;;;;;5.50;99.90;;;;;;4958589;28;20301;-76
2022/03/30 06:21:38;;;;;;;;;;;5.50;99.90;;;;;;4959729;28;19922;-75
2022/03/30 06:24:04;;;;;;;;;;;5.60;99.90;;;;;;4943998;28;20013;-75
2022/03/30 06:26:33;;;;;;;;;;;5.60;99.90;;;;;;4976750;28;20404;-75
2022/03/30 06:29:02;;;;;;;;;;;5.60;99.90;;;;;;4975585;28;19985;-75
2022/03/30 06:31:28;;;;;;;;;;;5.70;99.90;;;;;;4943089;28;20031;-76
2022/03/30 06:33:54;;;;;;;;;;;5.70;99.90;;;;;;4959288;28;20438;-75
2022/03/30 06:36:21;;;;;;;;;;;5.80;99.90;;;;;;4958843;28;19922;-75
2022/03/30 06:38:46;;;;;;;;;;;5.80;99.90;;;;;;4959170;28;19949;-76
2022/03/30 06:41:17;;;;;;;;;;;5.90;99.90;;;;;;4958801;28;20374;-76
2022/03/30 06:43:46;;;;;;;;;;;5.90;99.90;;;;;;4943219;28;20322;-76
2022/03/30 06:46:16;;;;;;;;;;;5.90;99.90;;;;;;4975144;28;19933;-75
2022/03/30 06:48:47;;;;;;;;;;;6.00;99.90;;;;;;4976454;28;20028;-75
2022/03/30 06:51:14;;;;;;;;;;;6.00;99.90;;;;;;4942624;28;19965;-76
2022/03/30 06:53:40;;;;;;;;;;;6.10;99.90;;;;;;4974760;28;20437;-76
2022/03/30 06:56:08;;;;;;;;;;;6.20;99.90;;;;;;4958555;28;20378;-75
2022/03/30 06:58:36;;;;;;;;;;;6.30;99.90;;;;;;4976165;28;20022;-76
2022/03/30 07:01:08;;;;;;;;;;;6.30;99.90;;;;;;4975785;28;19945;-76
2022/03/30 07:03:34;;;;;;;;;;;6.40;99.90;;;;;;4958204;28;19922;-76
2022/03/30 07:06:05;;;;;;;;;;;6.40;99.90;;;;;;4958010;28;19926;-76
2022/03/30 07:11:15;;;;;;;;;;;6.40;99.90;;;;;;4958188;28;19922;-76
2022/03/30 07:13:41;;;;;;;;;;;6.40;99.90;;;;;;4975530;28;20320;-76
2022/03/30 07:16:06;;;;;;;;;;;6.40;99.90;;;;;;4989741;28;20381;-76
2022/03/30 07:18:33;;;;;;;;;;;6.40;99.90;;;;;;4957861;28;19932;-75
2022/03/30 07:21:02;;;;;;;;;;;6.40;99.90;;;;;;4990506;28;20337;-75
2022/03/30 07:23:28;;;;;;;;;;;6.40;99.90;;;;;;4990589;28;19922;-75
2022/03/30 07:26:00;;;;;;;;;;;6.50;99.90;;;;;;4990998;28;19926;-75
2022/03/30 07:28:29;;;;;;;;;;;6.50;99.90;;;;;;4958965;28;20337;-74
2022/03/30 07:30:56;;;;;;;;;;;6.50;99.90;;;;;;4957486;28;19974;-75
2022/03/30 07:33:23;;;;;;;;;;;6.50;99.90;;;;;;4941869;28;19925;-75
2022/03/30 07:35:49;;;;;;;;;;;6.50;99.90;;;;;;4973718;28;20004;-75
2022/03/30 07:38:17;;;;;;;;;;;6.60;99.90;;;;;;4957709;28;20385;-76
2022/03/30 07:40:45;;;;;;;;;;;6.70;99.90;;;;;;4957676;28;19926;-76
2022/03/30 07:43:12;;;;;;;;;;;6.70;99.90;;;;;;4957569;28;20056;-75
2022/03/30 07:45:39;;;;;;;;;;;6.70;99.90;;;;;;4941631;28;19926;-75
2022/03/30 07:48:05;;;;;;;;;;;6.80;99.90;;;;;;4957534;28;19951;-74
2022/03/30 07:50:31;;;;;;;;;;;6.80;99.90;;;;;;4989818;28;19922;-74
2022/03/30 07:53:00;;;;;;;;;;;6.80;99.90;;;;;;4990021;28;20016;-76
2022/03/30 07:55:29;;;;;;;;;;;6.90;99.90;;;;;;4989753;28;19973;-76
2022/03/30 07:57:55;;;;;;;;;;;6.90;99.90;;;;;;4957147;28;19922;-75
2022/03/30 08:00:22;;;;;;;;;;;7.00;99.90;;;;;;4957503;28;19930;-75
2022/03/30 08:02:47;;;;;;;;;;;7.10;99.90;;;;;;4956952;28;19926;-75
2022/03/30 08:05:13;;;;;;;;;;;7.20;99.90;;;;;;4972667;28;19921;-75
2022/03/30 08:07:40;;;;;;;;;;;7.30;99.90;;;;;;4941468;28;19969;-75
2022/03/30 08:10:08;;;;;;;;;;;7.40;99.90;;;;;;4957411;28;19922;-76
2022/03/30 08:12:34;;;;;;;;;;;7.30;99.90;;;;;;4957381;28;19929;-75
2022/03/30 08:15:00;;;;;;;;;;;7.30;99.90;;;;;;4942029;28;20340;-75
2022/03/30 08:17:31;;;;;;;;;;;7.40;99.90;;;;;;4974774;28;19930;-75
2022/03/30 08:19:59;;;;;;;;;;;7.40;99.90;;;;;;4957245;28;19926;-75
2022/03/30 08:22:28;;;;;;;;;;;7.40;99.90;;;;;;4957471;28;19968;-75
2022/03/30 08:24:59;;;;;;;;;;;7.50;99.90;;;;;;4974294;28;19944;-75
2022/03/30 08:27:26;;;;;;;;;;;7.60;99.90;;;;;;4925245;28;19926;-74
2022/03/30 08:29:52;;;;;;;;;;;7.70;99.90;;;;;;4957085;28;19926;-74
2022/03/30 08:32:18;;;;;;;;;;;7.80;99.90;;;;;;4940920;28;19988;-76
2022/03/30 08:34:45;;;;;;;;;;;8.00;99.90;;;;;;4956837;28;19922;-76
2022/03/30 08:37:17;;;;;;;;;;;8.20;99.90;;;;;;4972194;28;19926;-76
2022/03/30 08:39:44;;;;;;;;;;;8.20;99.90;;;;;;4956622;28;19996;-76
2022/03/30 08:42:11;;;;;;;;;;;8.30;99.90;;;;;;4956275;28;19977;-75
2022/03/30 08:44:37;;;;;;;;;;;8.20;99.90;;;;;;4939757;28;19932;-76
2022/03/30 08:47:03;;;;;;;;;;;8.40;99.90;;;;;;4973838;28;19922;-76
2022/03/30 08:49:33;;;;;;;;;;;8.60;99.90;;;;;;4956787;28;19930;-76
2022/03/30 08:52:00;;;;;;;;;;;8.70;99.90;;;;;;4956273;28;19973;-76
2022/03/30 08:54:26;;;;;;;;;;;8.80;99.80;;;;;;4974055;28;20009;-76
2022/03/30 08:56:55;;;;;;;;;;;9.00;99.90;;;;;;4956399;28;19965;-76
2022/03/30 08:59:22;;;;;;;;;;;9.20;98.90;;;;;;4956444;28;19973;-76
2022/03/30 09:01:49;;;;;;;;;;;9.30;98.20;;;;;;4972627;28;20301;-76
2022/03/30 09:04:17;;;;;;;;;;;9.30;98.80;;;;;;4973485;28;19922;-77
2022/03/30 09:06:49;;;;;;;;;;;9.20;97.20;;;;;;4987819;28;19980;-75
2022/03/30 09:09:15;;;;;;;;;;;9.00;97.00;;;;;;4973842;28;19922;-76
2022/03/30 09:11:41;;;;;;;;;;;9.20;97.10;;;;;;4955938;28;19930;-76
2022/03/30 09:14:07;;;;;;;;;;;9.50;97.20;;;;;;4955666;28;20012;-76
2022/03/30 09:16:44;;;;;;;;;;;9.70;97.20;;;;;;4956549;28;20333;-77
2022/03/30 09:19:40;;;;;;;;;;;10.00;96.60;;;;;;4948844;29;19922;-76
2022/03/30 09:22:10;;;;;;;;;;;10.30;96.10;;;;;;4933673;29;19945;-74
2022/03/30 09:24:37;;;;;;;;;;;10.50;95.30;;;;;;4949144;29;19973;-76
2022/03/30 09:27:05;;;;;;;;;;;10.50;94.70;;;;;;4948841;29;19930;-75
2022/03/30 09:29:36;;;;;;;;;;;10.60;94.60;;;;;;4934079;29;19972;-75
2022/03/30 09:32:03;;;;;;;;;;;10.60;93.00;;;;;;4921597;29;19977;-76
2022/03/30 09:34:33;;;;;;;;;;;10.60;94.80;;;;;;4920709;29;20334;-76
2022/03/30 09:36:59;;;;;;;;;;;10.70;94.80;;;;;;4950025;29;20032;-77
2022/03/30 09:39:30;;;;;;;;;;;10.60;93.40;;;;;;4932347;29;20427;-76
2022/03/30 09:41:59;;;;;;;;;;;10.90;93.90;;;;;;4917022;29;19926;-77
2022/03/30 09:44:26;;;;;;;;;;;11.00;93.50;;;;;;4932645;29;19965;-77
2022/03/30 09:47:06;;;;;;;;;;;11.00;93.30;;;;;;4916718;29;20353;-76
2022/03/30 09:49:32;;;;;;;;;;;10.90;93.00;;;;;;4948612;29;19966;-76
2022/03/30 09:51:58;;;;;;;;;;;11.30;93.40;;;;;;4932455;29;19961;-76
2022/03/30 09:54:44;;;;;;;;;;;11.60;93.60;;;;;;4920342;29;20311;-76
2022/03/30 09:57:12;;;;;;;;;;;11.60;93.30;;;;;;4936320;29;19970;-75
2022/03/30 10:00:03;;;;;;;;;;;11.50;92.60;;;;;;4920675;29;19959;-76
2022/03/30 10:02:32;;;;;;;;;;;11.30;91.60;;;;;;4890767;29;20388;-77
2022/03/30 10:04:59;;;;;;;;;;;11.40;93.20;;;;;;4924742;29;20345;-76
2022/03/30 10:07:26;;;;;;;;;;;11.40;91.70;;;;;;4940394;29;19929;-76
2022/03/30 10:09:56;;;;;;;;;;;11.40;91.30;;;;;;4958035;29;19923;-75
2022/03/30 10:12:22;;;;;;;;;;;11.50;90.60;;;;;;4972469;28;19932;-76
2022/03/30 10:14:49;;;;;;;;;;;11.70;91.90;;;;;;4958142;29;19981;-75
2022/03/30 10:17:23;;;;;;;;;;;12.00;92.70;;;;;;4941318;29;19928;-77
2022/03/30 10:19:57;;;;;;;;;;;12.20;91.20;;;;;;4943258;29;20357;-76
2022/03/30 10:22:43;;;;;;;;;;;12.10;90.40;;;;;;4927940;29;20301;-76
2022/03/30 10:25:26;;;;;;;;;;;11.90;90.40;;;;;;4956625;29;19922;-76
2022/03/30 10:27:56;;;;;;;;;;;12.10;91.10;;;;;;4957639;29;19923;-76
2022/03/30 10:30:32;;;;;;;;;;;12.20;92.30;;;;;;4971969;28;20386;-78
2022/03/30 10:32:59;;;;;;;;;;;12.30;91.60;;;;;;4940368;29;20302;-77
2022/03/30 10:35:39;;;;;;;;;;;12.60;92.00;;;;;;4940248;29;19922;-77
2022/03/30 10:38:05;;;;;;;;;;;13.00;89.90;;;;;;4940268;29;19986;-77
2022/03/30 10:40:31;;;;;;;;;;;13.00;74.40;;;;;;4940182;29;20373;-76
2022/03/30 10:42:58;;;;;;;;;;;12.80;72.60;;;;;;4956155;29;19982;-77
2022/03/30 10:45:40;;;;;;;;;;;12.60;70.60;;;;;;4939441;29;20005;-77
2022/03/30 10:48:06;;;;;;;;;;;12.40;76.90;;;;;;4940371;29;19926;-77
2022/03/30 10:50:33;;;;;;;;;;;13.00;81.50;;;;;;4939844;29;20350;-77
2022/03/30 10:53:35;;;;;;;;;;;12.90;78.70;;;;;;4957103;29;20342;-77
2022/03/30 10:56:09;;;;;;;;;;;13.10;77.70;;;;;;4971688;28;19927;-77
2022/03/30 10:58:36;;;;;;;;;;;13.40;72.40;;;;;;4941058;29;20298;-77
2022/03/30 11:01:12;;;;;;;;;;;13.60;79.00;;;;;;4924290;29;20396;-76
2022/03/30 11:04:00;;;;;;;;;;;13.50;70.00;;;;;;4954046;28;20009;-76
2022/03/30 11:06:27;;;;;;;;;;;13.80;70.00;;;;;;4922506;29;19923;-77
2022/03/30 11:09:01;;;;;;;;;;;14.10;60.70;;;;;;4971931;28;20016;-78
2022/03/30 11:11:29;;;;;;;;;;;14.00;60.90;;;;;;4939613;29;20017;-77
2022/03/30 11:14:13;;;;;;;;;;;14.10;55.40;;;;;;4956283;29;20342;-77
2022/03/30 11:16:49;;;;;;;;;;;14.10;61.20;;;;;;4943633;29;20009;-76
2022/03/30 11:19:18;;;;;;;;;;;13.70;55.60;;;;;;4960409;29;19933;-77
2022/03/30 11:22:01;;;;;;;;;;;13.90;54.80;;;;;;4958404;29;19922;-76
2022/03/30 11:24:30;;;;;;;;;;;13.80;56.00;;;;;;4955152;29;19926;-77
2022/03/30 11:26:59;;;;;;;;;;;13.80;56.20;;;;;;4939226;29;20390;-76
2022/03/30 11:29:45;;;;;;;;;;;13.70;59.00;;;;;;4971614;28;19987;-77
2022/03/30 11:32:22;;;;;;;;;;;13.80;58.10;;;;;;4939811;29;19962;-77
2022/03/30 11:34:58;;;;;;;;;;;14.00;60.20;;;;;;4939287;29;19922;-77
2022/03/30 11:37:31;;;;;;;;;;;14.30;54.80;;;;;;4971500;28;19929;-78
2022/03/30 11:40:01;;;;;;;;;;;14.90;51.60;;;;;;4939286;29;20017;-76
2022/03/30 11:42:27;;;;;;;;;;;15.40;52.50;;;;;;4956461;29;19934;-77
2022/03/30 11:47:37;;;;;;;;;;;15.80;50.00;;;;;;4938870;29;20307;-77
2022/03/30 11:50:03;;;;;;;;;;;16.10;48.00;;;;;;4970374;28;19923;-77
2022/03/30 11:52:30;;;;;;;;;;;16.30;46.80;;;;;;4938655;29;20384;-77
2022/03/30 11:54:56;;;;;;;;;;;16.50;46.40;;;;;;4938180;29;19923;-76
2022/03/30 11:57:22;;;;;;;;;;;16.70;47.90;;;;;;4956064;29;19933;-77
2022/03/30 11:59:55;;;;;;;;;;;17.40;47.30;;;;;;4922828;29;19934;-76
2022/03/30 12:02:24;;;;;;;;;;;17.30;44.40;;;;;;4957788;28;19969;-77
2022/03/30 12:04:51;;;;;;;;;;;16.70;44.00;;;;;;4988785;28;19929;-76
2022/03/30 12:07:19;;;;;;;;;;;17.20;45.40;;;;;;4973746;28;19926;-77
2022/03/30 12:09:48;;;;;;;;;;;17.90;45.50;;;;;;4942053;28;19922;-76
2022/03/30 12:12:36;;;;;;;;;;;18.10;41.90;;;;;;4958622;28;19922;-76
2022/03/30 12:15:19;;;;;;;;;;;17.80;41.20;;;;;;4945915;28;19989;-76
2022/03/30 12:17:56;;;;;;;;;;;17.50;42.00;;;;;;4976465;28;19929;-77
2022/03/30 12:20:30;;;;;;;;;;;18.00;43.20;;;;;;4977041;28;19926;-77
2022/03/30 12:23:00;;;;;;;;;;;17.50;42.80;;;;;;4957894;28;19922;-77
2022/03/30 12:25:30;;;;;;;;;;;17.40;42.50;;;;;;4957527;28;19966;-76
2022/03/30 12:27:59;;;;;;;;;;;17.50;40.60;;;;;;4957137;28;19925;-77
2022/03/30 12:30:25;;;;;;;;;;;17.70;41.60;;;;;;4989825;28;19918;-75
2022/03/30 12:32:52;;;;;;;;;;;17.60;41.20;;;;;;4957012;28;19922;-76
2022/03/30 12:35:19;;;;;;;;;;;17.50;40.40;;;;;;4940575;28;19933;-76
2022/03/30 12:37:46;;;;;;;;;;;17.30;41.90;;;;;;4940785;28;19922;-76
2022/03/30 12:40:13;;;;;;;;;;;17.10;41.00;;;;;;4972710;28;19922;-75
2022/03/30 12:42:39;;;;;;;;;;;16.90;41.30;;;;;;4956549;28;19929;-77
2022/03/30 12:45:14;;;;;;;;;;;16.80;42.20;;;;;;4957343;28;19926;-78
2022/03/30 12:47:48;;;;;;;;;;;16.80;41.90;;;;;;4957029;28;19929;-76
2022/03/30 12:50:19;;;;;;;;;;;16.90;42.40;;;;;;4940703;28;20346;-77
2022/03/30 12:52:48;;;;;;;;;;;17.20;41.80;;;;;;4972919;28;19929;-77
2022/03/30 12:55:14;;;;;;;;;;;16.80;41.80;;;;;;4989500;28;20271;-78
2022/03/30 12:57:48;;;;;;;;;;;16.70;42.50;;;;;;4956667;28;19929;-76
2022/03/30 13:00:34;;;;;;;;;;;16.30;42.80;;;;;;4966684;28;20402;-76
2022/03/30 13:03:07;;;;;;;;;;;16.20;41.90;;;;;;4937219;28;19945;-77
2022/03/30 13:05:34;;;;;;;;;;;16.40;42.30;;;;;;4957166;29;19933;-77
2022/03/30 13:08:00;;;;;;;;;;;16.70;41.50;;;;;;4955984;29;19930;-77
2022/03/30 13:10:25;;;;;;;;;;;16.70;41.70;;;;;;4939418;29;20370;-78
2022/03/30 13:12:55;;;;;;;;;;;16.40;41.30;;;;;;4952548;29;20298;-77
2022/03/30 13:15:25;;;;;;;;;;;15.60;41.70;;;;;;4935752;29;20381;-78
2022/03/30 13:18:01;;;;;;;;;;;15.40;43.20;;;;;;4952422;29;20025;-77
2022/03/30 13:20:28;;;;;;;;;;;15.10;44.00;;;;;;4936398;29;20282;-77
2022/03/30 13:22:57;;;;;;;;;;;14.80;43.70;;;;;;4952498;29;19923;-78
2022/03/30 13:25:51;;;;;;;;;;;14.50;44.60;;;;;;4952278;29;20616;-77
2022/03/30 13:28:24;;;;;;;;;;;14.20;44.90;;;;;;4935925;29;19929;-77
2022/03/30 13:30:50;;;;;;;;;;;13.80;44.60;;;;;;4936710;29;19926;-77
2022/03/30 13:33:15;;;;;;;;;;;13.60;46.80;;;;;;4937715;29;20329;-77
2022/03/30 13:35:41;;;;;;;;;;;13.40;46.40;;;;;;4953163;29;20005;-77
2022/03/30 13:38:17;;;;;;;;;;;13.40;47.70;;;;;;4937565;29;19933;-78
2022/03/30 13:40:44;;;;;;;;;;;13.00;47.40;;;;;;4937444;29;20267;-78
2022/03/30 13:43:10;;;;;;;;;;;12.90;48.30;;;;;;4953003;29;20294;-75
2022/03/30 13:45:36;;;;;;;;;;;12.70;48.10;;;;;;4953092;29;20013;-77
2022/03/30 13:48:02;;;;;;;;;;;12.40;50.60;;;;;;4953472;29;19934;-77
2022/03/30 13:50:28;;;;;;;;;;;12.20;49.30;;;;;;4936831;29;19922;-76
2022/03/30 13:53:02;;;;;;;;;;;12.20;50.00;;;;;;4937512;29;20005;-77
2022/03/30 13:55:32;;;;;;;;;;;12.20;50.50;;;;;;4954434;28;19922;-76
2022/03/30 13:57:57;;;;;;;;;;;12.20;50.90;;;;;;4937431;29;20341;-76
2022/03/30 14:00:26;;;;;;;;;;;12.00;50.80;;;;;;4958095;29;19929;-76
2022/03/30 14:02:56;;;;;;;;;;;11.90;51.30;;;;;;4925439;29;19937;-77
2022/03/30 14:05:22;;;;;;;;;;;11.90;52.10;;;;;;4935225;29;19927;-78
2022/03/30 14:07:48;;;;;;;;;;;11.80;51.40;;;;;;4952604;29;19923;-76
2022/03/30 14:10:13;;;;;;;;;;;11.90;52.80;;;;;;4954055;29;19922;-77
2022/03/30 14:12:39;;;;;;;;;;;11.90;52.00;;;;;;4953974;29;19926;-76
2022/03/30 14:15:06;;;;;;;;;;;11.80;52.40;;;;;;4952644;29;20394;-77
2022/03/30 14:17:31;;;;;;;;;;;11.80;52.50;;;;;;4920593;29;19930;-77
2022/03/30 14:19:57;;;;;;;;;;;11.70;52.00;;;;;;4921400;29;20366;-78
2022/03/30 14:22:23;;;;;;;;;;;11.80;52.70;;;;;;4952373;29;20401;-77
2022/03/30 14:24:48;;;;;;;;;;;11.70;52.20;;;;;;4952519;29;20211;-77
2022/03/30 14:27:19;;;;;;;;;;;11.70;52.90;;;;;;4952409;29;20282;-76
2022/03/30 14:29:45;;;;;;;;;;;11.70;53.40;;;;;;4952714;29;20293;-77
2022/03/30 14:32:19;;;;;;;;;;;11.50;54.70;;;;;;4953163;28;20378;-77
2022/03/30 14:34:44;;;;;;;;;;;11.40;54.80;;;;;;4952526;29;20013;-77
2022/03/30 14:37:10;;;;;;;;;;;11.50;56.30;;;;;;4968753;28;20054;-77
2022/03/30 14:39:39;;;;;;;;;;;11.30;55.40;;;;;;4956780;28;20410;-76
2022/03/30 14:42:04;;;;;;;;;;;11.40;56.50;;;;;;4955942;29;20378;-76
2022/03/30 14:44:30;;;;;;;;;;;11.30;55.90;;;;;;4987944;28;20377;-77
2022/03/30 14:46:56;;;;;;;;;;;11.20;56.50;;;;;;4955957;29;19929;-76